createdAt,value
2023-03-06T00:07:03.621Z,5.83
2023-03-06T00:17:06.176Z,6.20
2023-03-06T00:27:11.744Z,6.33
2023-03-06T00:37:14.201Z,6.22
2023-03-06T00:47:18.009Z,6.13
2023-03-06T00:57:20.572Z,5.90
2023-03-06T01:07:23.875Z,5.32
2023-03-06T01:17:26.385Z,5.70
2023-03-06T01:27:28.986Z,5.93
2023-03-06T01:37:31.471Z,5.05
2023-03-06T01:47:34.240Z,5.17
2023-03-06T01:57:44.788Z,5.10
2023-03-06T02:07:48.337Z,5.00
2023-03-06T02:17:51.823Z,8.00
2023-03-06T02:27:54.543Z,5.53
2023-03-06T02:38:02.540Z,4.43
2023-03-06T02:48:06.713Z,5.10
2023-03-06T02:58:09.496Z,4.93
2023-03-06T03:08:12.360Z,5.13
2023-03-06T03:18:15.013Z,5.10
2023-03-06T03:28:18.969Z,5.37
2023-03-06T03:38:21.628Z,5.83
2023-03-06T03:48:25.144Z,5.70
2023-03-06T03:58:28.074Z,6.32
2023-03-06T04:08:31.134Z,6.10
2023-03-06T04:18:33.920Z,5.73
2023-03-06T04:28:39.950Z,6.30
2023-03-06T04:38:42.909Z,6.67
2023-03-06T04:48:45.709Z,5.87
2023-03-06T04:58:48.266Z,5.28
2023-03-06T05:08:50.829Z,6.23
2023-03-06T05:18:53.475Z,5.93
2023-03-06T05:28:56.299Z,5.97
2023-03-06T05:38:59.067Z,6.82
2023-03-06T06:27:10.892Z,8.57
2023-03-06T06:37:13.930Z,6.45
2023-03-06T06:47:25.418Z,7.07
2023-03-06T06:57:28.362Z,7.33
2023-03-06T07:07:34.382Z,5.57
2023-03-06T07:17:37.311Z,7.23
2023-03-06T07:27:39.951Z,6.70
2023-03-06T07:37:43.084Z,6.30
2023-03-06T07:47:45.783Z,5.55
2023-03-06T07:57:50.714Z,6.30
2023-03-06T08:07:53.469Z,6.90
2023-03-06T08:17:56.160Z,6.45
2023-03-06T08:27:58.723Z,6.47
2023-03-06T08:38:01.204Z,6.80
2023-03-06T08:48:03.937Z,5.65
2023-03-06T08:58:06.716Z,6.43
2023-03-06T09:08:09.396Z,6.87
2023-03-06T09:18:11.856Z,8.30
2023-03-06T09:28:14.467Z,8.20
2023-03-06T09:38:18.420Z,7.67
2023-03-06T09:48:28.953Z,7.93
2023-03-06T09:58:37.638Z,8.13
2023-03-06T10:08:49.213Z,8.07
2023-03-06T10:18:52.870Z,9.07
2023-03-06T10:29:11.255Z,10.35
2023-03-06T10:39:20.042Z,9.07
2023-03-06T10:49:35.137Z,8.90
2023-03-06T10:59:52.375Z,9.00
2023-03-06T11:09:57.669Z,7.78
2023-03-06T11:20:15.232Z,9.20
2023-03-06T11:30:21.871Z,8.83
2023-03-06T11:41:04.847Z,10.02
2023-03-06T11:51:21.258Z,8.83
2023-03-06T12:01:26.692Z,8.77
2023-03-06T12:11:35.572Z,9.10
2023-03-06T12:21:56.454Z,8.77
2023-03-06T12:32:05.144Z,8.23
2023-03-06T12:42:57.348Z,7.97
2023-03-06T12:53:18.196Z,8.40
2023-03-06T13:03:28.683Z,8.80
2023-03-06T13:13:44.391Z,10.40
2023-03-06T13:23:51.737Z,10.00
2023-03-06T13:33:59.696Z,9.43
2023-03-06T13:44:25.061Z,8.60
2023-03-06T13:54:45.927Z,9.50
2023-03-06T14:05:02.444Z,8.80
2023-03-06T14:15:30.663Z,8.40
2023-03-06T14:25:35.149Z,8.77
2023-03-06T14:35:38.999Z,9.40
2023-03-06T14:45:52.910Z,10.73
2023-03-06T14:56:06.713Z,11.53
2023-03-06T15:06:15.473Z,11.27
2023-03-06T15:16:20.983Z,12.23
2023-03-06T15:26:39.788Z,9.30
2023-03-06T15:36:46.655Z,9.30
2023-03-06T15:46:51.827Z,17.90
2023-03-06T15:56:56.321Z,24.30
2023-03-06T16:06:59.729Z,14.63
2023-03-06T16:17:02.599Z,24.95
2023-03-06T16:27:06.985Z,10.83
2023-03-06T16:37:13.287Z,10.10
2023-03-06T16:47:16.954Z,13.95
2023-03-06T16:57:19.599Z,12.20
2023-03-06T17:07:22.306Z,13.30
2023-03-06T17:17:25.212Z,10.95
2023-03-06T17:27:27.822Z,13.53
2023-03-06T17:37:32.030Z,10.43
2023-03-06T17:47:35.336Z,10.63
2023-03-06T17:57:38.098Z,10.63
2023-03-06T18:07:40.726Z,11.70
2023-03-06T18:17:43.476Z,10.37
2023-03-06T18:27:46.854Z,14.70
2023-03-06T18:37:50.014Z,11.23
2023-03-06T18:47:52.825Z,13.20
2023-03-06T18:57:55.552Z,14.35
2023-03-06T19:07:58.438Z,12.10
2023-03-06T19:18:01.333Z,11.10
2023-03-06T19:28:04.147Z,10.63
2023-03-06T19:38:06.614Z,14.48
2023-03-06T19:48:11.353Z,11.97
2023-03-06T19:58:14.437Z,12.83
2023-03-06T20:08:17.426Z,23.35
2023-03-06T20:18:20.171Z,17.20
2023-03-06T20:28:23.500Z,14.37
2023-03-06T20:38:26.300Z,14.85
2023-03-06T20:48:30.048Z,13.47
2023-03-06T20:58:32.971Z,15.70
2023-03-06T21:08:35.766Z,14.60
2023-03-06T21:18:39.953Z,11.40
2023-03-06T21:28:42.949Z,11.83
2023-03-06T21:38:48.577Z,12.87
2023-03-06T21:48:51.595Z,18.25
2023-03-06T21:58:55.293Z,11.97
2023-03-06T22:08:59.352Z,14.63
2023-03-06T22:19:01.886Z,12.52
2023-03-06T22:29:04.498Z,11.93
2023-03-06T22:39:06.916Z,13.37
2023-03-06T22:49:12.161Z,12.50
2023-03-06T22:59:14.620Z,14.02
2023-03-06T23:09:22.179Z,13.17
2023-03-06T23:19:43.202Z,12.40
2023-03-06T23:30:05.544Z,12.90
2023-03-06T23:40:09.422Z,11.63
2023-03-06T23:50:12.193Z,13.17
